LELC Airport Information

Runway Information
Runway 05 Length 7546 ft width 197 ft
Elevation 11 ft Threshold 0 ft Heading 46
Runway 23 Length 7546 ft Width 197 ft
Elevation 5 ft Threshold 0 ft Heading 226
Runway 05L Length 2867 ft width 197 ft
Elevation 0 ft Threshold 0 ft Heading 46
Runway 23R Length 2867 ft Width 197 ft
Elevation 0 ft Threshold 0 ft Heading 226
Runway 14 Length 2625 ft width 197 ft
Elevation 0 ft Threshold 0 ft Heading 136
Runway 32 Length 2625 ft Width 197 ft
Elevation 0 ft Threshold 0 ft Heading 316
Airport Frequencies
Type APP Name SAN JAVIER Frequency 130.3 MHZ
Type GND Name SAN JAVIER Frequency 121.6 MHZ
Type TWR Name SAN JAVIER Frequency 130.3 MHZ
Airport Navaids
Type NDB Name Murcia/San Javier Frequency 381 KHZ
Type NDB Name Murcia/San Javier Frequency 370 KHZ
Type TACAN Name Murcia/San Javier Frequency 113000 KHZ
Type VOR-DME Name Murcia/San Javier Frequency 113000 KHZ
Airport Weather Information & NOTAM
ADDS - METARS form results

(1121 UTC 18 October 2018)
Data provider http://aviationweather.gov/metar/data/
 
METAR text: LELC 181100Z 08004KT 030V120 9999 FEW046 22/15 Q1009 NOSIG
Conditions at: LELC (SAN JAVIER(MIL/C, ES) observed 1100 UTC 18 October 2018
Temperature: 22.0°C (72°F)
Dewpoint: 15.0°C (59°F) [RH = 65%]
Pressure (altimeter): 29.79 inches Hg (1009.0 mb)
Winds: from the E (80 degrees) at 5 MPH (4 knots; 2.1 m/s)
Visibility: 6 or more miles (10+ km)
Ceiling: at least 12,000 feet AGL
Clouds: few clouds at 4600 feet AGL
Weather: no significant weather observed at this time

METAR text: LELC 181030Z 06003KT 360V120 9999 FEW046 22/14 Q1009 NOSIG
Conditions at: LELC (SAN JAVIER(MIL/C, ES) observed 1030 UTC 18 October 2018
Temperature: 22.0°C (72°F)
Dewpoint: 14.0°C (57°F) [RH = 60%]
Pressure (altimeter): 29.79 inches Hg (1009.0 mb)
Winds: from the ENE (60 degrees) at 3 MPH (3 knots; 1.5 m/s)
Visibility: 6 or more miles (10+ km)
Ceiling: at least 12,000 feet AGL
Clouds: few clouds at 4600 feet AGL
Weather: no significant weather observed at this time

Forecast for: LELC (SAN JAVIER(MIL/C, ES)
Text: TAF LELC 180500Z 1806/1906 29004KT 9999 SCT025 TX23/1814Z TN14/1806Z
Forecast period: 0600 UTC 18 October 2018 to 0600 UTC 19 October 2018
Forecast type: FROM: standard forecast or significant change
Winds: from the WNW (290 degrees) at 5 MPH (4 knots; 2.1 m/s)
Visibility: 6 or more miles 10+ km)
Ceiling: at least 12,000 feet AGL
Clouds: scattered clouds at 2500 feet AGL
Weather: no significant weather forecast for this period
Text: PROB30
Forecast period: 1200 to 1900 UTC 18 October 2018
Forecast type: TEMPORARY: The following changes expected for less than half the time period
Visibility: 2.49 miles (4.01 km)
Ceiling: at least 12,000 feet AGL
Clouds: scattered clouds at 2000 feet AGL
scattered clouds at 3500 feet AGL
Weather: SHRA  (rain showers)